Terminal Aerodrome Forecast
Issued by NWS

Home | Current Version | Previous Version | Text Only | Print | Product List | Glossary On
Versions: 1 2 3 4 5 6 7 8 9 10 11 12 13
000
FTUS43 KIND 300533
TAFBMG
TAF
KBMG 300533Z 3006/3106 00000KT P6SM BKN100
     FM300830 21001KT 3SM BR BKN100
     FM301430 23005KT P6SM BKN050
     FM301700 20006KT P6SM VCTS BKN050CB
     FM310200 18004KT P6SM BKN100
      AMD LTD TO CLD VIS AND WIND TIL 301300=

USA.gov is the U.S. government's official web portal to all federal, state and local government web resources and services.